Time;durP1;ratioP1;P1;durP2;ratioP2;P2;SDS_P1;SDS_P2;PMS_P1;PMS_P2;Temp;Humidity;BMP_temperature;BMP_pressure;BME280_temperature;BME280_humidity;BME280_pressure;Samples;Min_cycle;Max_cycle;Signal;HPM_P1;HPM_P2
2021/11/23 00:01:04;;;;;;;6.28;3.53;;;;;;;0.03;92.59;99808.84;5073497;28;20035;-71
2021/11/23 00:03:30;;;;;;;5.53;3.20;;;;;;;0.00;92.23;99803.75;5072241;28;20395;-70
2021/11/23 00:05:55;;;;;;;4.70;3.25;;;;;;;-0.02;92.79;99811.84;5073792;28;20066;-70
2021/11/23 00:08:20;;;;;;;4.93;3.47;;;;;;;-0.11;91.95;99791.22;5074037;28;20032;-70
2021/11/23 00:10:46;;;;;;;6.13;3.80;;;;;;;-0.05;91.74;99779.31;5074227;28;20533;-70
2021/11/23 00:13:14;;;;;;;5.63;3.72;;;;;;;0.13;91.39;99801.03;5073722;28;20033;-70
2021/11/23 00:15:40;;;;;;;5.68;3.50;;;;;;;0.07;91.80;99804.16;5064573;28;20083;-71
2021/11/23 00:18:09;;;;;;;5.03;3.53;;;;;;;-0.02;92.21;99811.84;5074384;28;20047;-71
2021/11/23 00:20:35;;;;;;;4.88;3.03;;;;;;;0.11;90.54;99801.16;5074535;28;20386;-70
2021/11/23 00:23:01;;;;;;;5.40;3.30;;;;;;;0.29;89.59;99795.44;5069746;28;20051;-70
2021/11/23 00:25:28;;;;;;;8.10;3.38;;;;;;;0.26;89.62;99811.63;5065392;28;20446;-70
2021/11/23 00:27:54;;;;;;;6.32;3.45;;;;;;;0.31;89.44;99812.13;5072835;28;20032;-70
2021/11/23 00:30:20;;;;;;;5.95;3.17;;;;;;;0.10;89.97;99801.25;5074553;28;20090;-70
2021/11/23 00:32:48;;;;;;;6.35;3.80;;;;;;;0.10;88.68;99788.81;5068659;28;20056;-70
2021/11/23 00:35:14;;;;;;;4.47;3.08;;;;;;;0.19;89.66;99836.03;5065082;28;20386;-70
2021/11/23 00:37:40;;;;;;;4.72;3.28;;;;;;;0.04;90.27;99810.53;5073441;28;20012;-70
2021/11/23 00:40:06;;;;;;;5.25;3.45;;;;;;;0.09;90.63;99835.00;5072880;28;20040;-70
2021/11/23 00:42:31;;;;;;;5.53;3.47;;;;;;;0.07;90.91;99825.44;5073766;28;20047;-70
2021/11/23 00:44:56;;;;;;;5.57;3.50;;;;;;;-0.05;91.46;99829.84;5073108;28;20017;-70
2021/11/23 00:47:22;;;;;;;5.43;3.50;;;;;;;-0.28;92.33;99820.84;5060513;28;20036;-70
2021/11/23 00:49:47;;;;;;;5.53;3.75;;;;;;;-0.35;93.18;99812.44;5055991;28;20036;-71
2021/11/23 00:52:13;;;;;;;7.47;4.10;;;;;;;-0.38;93.00;99819.81;5059306;28;20078;-71
2021/11/23 00:54:39;;;;;;;6.18;4.10;;;;;;;-0.41;93.14;99826.19;5064217;28;20062;-71
2021/11/23 00:57:04;;;;;;;6.93;3.53;;;;;;;-0.49;93.67;99817.91;5073866;28;20025;-71
2021/11/23 00:59:30;;;;;;;6.95;3.90;;;;;;;-0.34;93.49;99839.88;5072570;28;20032;-71
2021/11/23 01:01:56;;;;;;;7.35;3.80;;;;;;;-0.30;93.20;99847.53;5069941;28;20121;-70
2021/11/23 01:04:21;;;;;;;5.38;3.80;;;;;;;-0.40;93.23;99827.03;5071649;28;20170;-70
2021/11/23 01:06:49;;;;;;;6.38;3.97;;;;;;;-0.30;93.75;99844.88;5074807;28;20229;-71
2021/11/23 01:09:16;;;;;;;7.93;4.20;;;;;;;-0.33;93.33;99847.75;5074514;28;20135;-70
2021/11/23 01:11:42;;;;;;;8.30;3.80;;;;;;;-0.42;93.86;99845.72;5071570;28;20064;-70
2021/11/23 01:14:08;;;;;;;6.43;4.30;;;;;;;-0.59;94.09;99830.13;5059416;28;20058;-70
2021/11/23 01:16:34;;;;;;;6.70;4.57;;;;;;;-0.44;94.17;99850.34;5068206;28;20543;-71
2021/11/23 01:19:00;;;;;;;8.90;4.90;;;;;;;-0.41;94.40;99855.44;5073723;28;20024;-70
2021/11/23 01:21:25;;;;;;;6.57;4.47;;;;;;;-0.56;94.82;99841.38;5070829;28;20078;-70
2021/11/23 01:23:50;;;;;;;7.07;4.30;;;;;;;-0.65;95.49;99838.53;5057947;28;20052;-70
2021/11/23 01:26:16;;;;;;;6.95;4.07;;;;;;;-0.60;95.20;99844.34;5073050;28;20422;-70
2021/11/23 01:28:41;;;;;;;9.65;4.55;;;;;;;-0.67;95.46;99836.81;5073240;28;20035;-70
2021/11/23 01:31:07;;;;;;;8.30;3.90;;;;;;;-0.61;95.13;99850.66;5071438;28;20051;-70
2021/11/23 01:33:32;;;;;;;7.65;4.72;;;;;;;-0.79;95.99;99835.00;5068491;28;20112;-70
2021/11/23 01:35:58;;;;;;;11.82;5.38;;;;;;;-0.72;96.27;99849.56;5067690;28;20115;-70
2021/11/23 01:38:23;;;;;;;10.48;5.63;;;;;;;-0.96;96.34;99825.56;5052871;28;20024;-71
2021/11/23 01:40:49;;;;;;;9.90;5.15;;;;;;;-0.77;96.59;99853.50;5082302;28;20479;-71
2021/11/23 01:43:14;;;;;;;12.57;5.07;;;;;;;-0.85;95.92;99822.16;5072463;28;20024;-70
2021/11/23 01:45:40;;;;;;;7.60;4.63;;;;;;;-0.69;95.83;99846.69;5074775;28;20024;-70
2021/11/23 01:48:07;;;;;;;8.15;5.05;;;;;;;-0.71;95.83;99845.97;5074280;28;20498;-70
2021/11/23 01:50:34;;;;;;;8.50;5.00;;;;;;;-0.72;95.80;99851.38;5068701;28;20569;-70
2021/11/23 01:53:00;;;;;;;7.38;4.60;;;;;;;-0.89;95.40;99826.00;5073856;28;20194;-70
2021/11/23 01:55:26;;;;;;;10.10;5.38;;;;;;;-0.77;95.73;99841.06;5054086;28;20544;-70
2021/11/23 01:57:52;;;;;;;9.15;5.18;;;;;;;-0.96;95.66;99824.72;5072931;28;20032;-70
2021/11/23 02:00:18;;;;;;;8.10;4.80;;;;;;;-0.81;95.89;99855.53;5075998;28;20393;-70
2021/11/23 02:02:45;;;;;;;8.82;5.40;;;;;;;-0.78;95.63;99852.66;5076836;28;20051;-70
2021/11/23 02:05:11;;;;;;;9.02;5.10;;;;;;;-0.74;95.80;99861.28;5082850;28;20063;-70
2021/11/23 02:07:37;;;;;;;10.48;4.97;;;;;;;-0.82;95.68;99859.13;5078958;28;20021;-70
2021/11/23 02:10:05;;;;;;;8.40;4.72;;;;;;;-0.85;96.30;99862.00;5080133;28;20020;-71
2021/11/23 02:12:31;;;;;;;11.20;4.88;;;;;;;-1.09;96.93;99845.94;5078758;28;20028;-70
2021/11/23 02:14:57;;;;;;;7.05;4.82;;;;;;;-1.00;97.03;99829.34;5079169;28;20033;-70
2021/11/23 02:17:22;;;;;;;9.50;5.10;;;;;;;-0.92;96.82;99863.38;5079369;28;20081;-70
2021/11/23 02:19:52;;;;;;;8.80;5.15;;;;;;;-1.02;97.10;99857.84;5081769;28;20025;-70
2021/11/23 02:22:18;;;;;;;10.60;5.55;;;;;;;-1.07;96.80;99848.47;5082157;28;20108;-71
2021/11/23 02:24:44;;;;;;;10.48;5.97;;;;;;;-1.06;96.97;99853.69;5071575;28;20458;-70
2021/11/23 02:27:09;;;;;;;9.13;5.63;;;;;;;-1.16;97.10;99829.56;5072407;28;20028;-70
2021/11/23 02:29:34;;;;;;;9.50;5.05;;;;;;;-1.06;97.24;99860.81;5079375;28;20028;-71
2021/11/23 02:32:00;;;;;;;11.95;5.07;;;;;;;-1.01;97.12;99856.03;5080948;28;20033;-71
2021/11/23 02:34:26;;;;;;;9.88;5.65;;;;;;;-0.98;96.63;99869.09;5082777;28;20024;-70
2021/11/23 02:36:51;;;;;;;9.52;5.70;;;;;;;-0.95;95.95;99858.28;5082786;28;20039;-70
2021/11/23 02:39:17;;;;;;;10.98;5.40;;;;;;;-0.91;96.42;99865.09;5082768;28;20020;-71
2021/11/23 02:41:42;;;;;;;11.88;5.57;;;;;;;-0.89;95.92;99879.13;5081555;28;20058;-71
2021/11/23 02:44:07;;;;;;;9.02;5.40;;;;;;;-0.88;95.41;99875.50;5082967;28;20025;-70
2021/11/23 02:46:34;;;;;;;10.18;5.45;;;;;;;-1.07;95.51;99848.47;5074467;28;20039;-70
2021/11/23 02:48:59;;;;;;;9.48;5.15;;;;;;;-1.11;96.03;99856.66;5077074;28;20020;-70
2021/11/23 02:51:27;;;;;;;9.02;5.38;;;;;;;-1.05;96.54;99868.66;5071254;28;20478;-70
2021/11/23 02:53:52;;;;;;;14.30;6.32;;;;;;;-1.18;97.37;99871.31;5072898;28;20035;-70
2021/11/23 02:56:18;;;;;;;8.80;5.72;;;;;;;-1.42;97.42;99833.09;5072908;28;20024;-71
2021/11/23 02:58:46;;;;;;;8.63;5.53;;;;;;;-1.27;96.67;99831.25;5073815;28;20046;-70
2021/11/23 03:01:13;;;;;;;9.10;5.40;;;;;;;-1.06;96.22;99876.75;5065333;28;20452;-70
2021/11/23 03:03:39;;;;;;;9.35;5.78;;;;;;;-1.04;96.04;99873.03;5062155;28;20025;-71
2021/11/23 03:06:04;;;;;;;10.82;5.63;;;;;;;-1.30;96.57;99858.00;5071802;28;20085;-71
2021/11/23 03:08:32;;;;;;;13.85;6.15;;;;;;;-1.37;97.35;99858.38;5078178;28;20028;-71
2021/11/23 03:10:57;;;;;;;9.57;5.72;;;;;;;-1.33;97.18;99875.81;5069528;28;20024;-71
2021/11/23 03:13:22;;;;;;;10.35;6.32;;;;;;;-1.47;98.11;99873.22;5073349;28;20040;-71
2021/11/23 03:15:48;;;;;;;11.48;5.95;;;;;;;-1.67;99.01;99850.66;5072754;28;20028;-72
2021/11/23 03:18:13;;;;;;;9.45;5.93;;;;;;;-1.75;99.66;99846.81;5073623;28;20040;-72
2021/11/23 03:20:39;;;;;;;11.75;6.53;;;;;;;-1.66;100.00;99868.25;5072997;28;20505;-71
2021/11/23 03:23:06;;;;;;;13.15;5.63;;;;;;;-1.70;100.00;99866.78;5066880;28;20078;-71
2021/11/23 03:25:31;;;;;;;8.45;5.72;;;;;;;-1.83;100.00;99866.72;5082046;28;20033;-71
2021/11/23 03:27:57;;;;;;;8.50;5.20;;;;;;;-1.99;100.00;99866.84;5082518;28;20020;-71
2021/11/23 03:30:27;;;;;;;8.57;5.35;;;;;;;-2.03;100.00;99875.94;5080507;28;20028;-71
2021/11/23 03:32:57;;;;;;;10.07;5.32;;;;;;;-2.03;100.00;99875.94;5079103;28;20035;-71
2021/11/23 03:35:24;;;;;;;9.90;5.50;;;;;;;-2.13;100.00;99856.25;5078495;28;20055;-69
2021/11/23 03:37:54;;;;;;;11.38;5.85;;;;;;;-1.96;100.00;99871.09;5075887;28;20089;-72
2021/11/23 03:40:22;;;;;;;10.00;5.60;;;;;;;-2.12;100.00;99871.22;5081202;28;20558;-71
2021/11/23 03:42:51;;;;;;;9.98;5.05;;;;;;;-2.20;100.00;99876.16;5086747;28;20036;-69
2021/11/23 03:45:17;;;;;;;7.53;4.13;;;;;;;-2.26;100.00;99864.09;5087302;28;20024;-69
2021/11/23 03:47:42;;;;;;;9.73;5.45;;;;;;;-2.15;100.00;99870.53;5083609;28;20068;-69
2021/11/23 03:50:11;;;;;;;10.43;5.65;;;;;;;-2.33;100.00;99857.50;5072619;28;20497;-69
2021/11/23 03:52:38;;;;;;;10.48;6.22;;;;;;;-2.33;100.00;99856.63;5062240;28;20079;-69
2021/11/23 03:55:06;;;;;;;10.10;5.55;;;;;;;-2.32;100.00;99859.19;5074755;28;20119;-69
2021/11/23 03:57:31;;;;;;;14.32;5.60;;;;;;;-2.38;100.00;99870.19;5074870;28;20028;-69
2021/11/23 03:59:57;;;;;;;8.82;5.05;;;;;;;-2.48;100.00;99869.91;5070577;28;20028;-69
2021/11/23 04:02:24;;;;;;;11.05;5.35;;;;;;;-2.53;100.00;99879.09;5067072;28;20032;-69
2021/11/23 04:04:51;;;;;;;12.10;6.13;;;;;;;-2.59;100.00;99871.50;5061364;28;20028;-69
2021/11/23 04:07:17;;;;;;;11.10;6.10;;;;;;;-2.56;100.00;99884.56;5075378;28;20024;-69
2021/11/23 04:09:43;;;;;;;12.95;6.93;;;;;;;-2.64;100.00;99882.38;5069989;28;22267;-69
2021/11/23 04:12:09;;;;;;;13.93;8.05;;;;;;;-2.64;100.00;99887.69;5076366;28;20031;-69
2021/11/23 04:14:36;;;;;;;22.98;8.82;;;;;;;-2.63;100.00;99886.72;5076126;28;20486;-69
2021/11/23 04:17:02;;;;;;;17.17;9.20;;;;;;;-2.60;100.00;99889.19;5073984;28;20403;-69
2021/11/23 04:19:28;;;;;;;15.98;8.65;;;;;;;-2.95;100.00;99846.31;5071237;28;20029;-69
2021/11/23 04:21:55;;;;;;;14.40;8.13;;;;;;;-2.59;100.00;99887.38;5072119;28;20052;-68
2021/11/23 04:24:21;;;;;;;19.98;9.00;;;;;;;-2.61;100.00;99898.09;5072082;28;20027;-69
2021/11/23 04:26:46;;;;;;;15.32;8.40;;;;;;;-2.74;100.00;99873.28;5075386;28;20028;-69
2021/11/23 04:29:11;;;;;;;16.00;8.05;;;;;;;-2.51;100.00;99899.25;5072265;28;20025;-69
2021/11/23 04:31:37;;;;;;;16.17;7.93;;;;;;;-2.62;100.00;99887.56;5070899;28;20108;-69
2021/11/23 04:34:02;;;;;;;15.52;8.18;;;;;;;-2.73;100.00;99888.22;5074557;28;20040;-69
2021/11/23 04:36:27;;;;;;;16.85;8.15;;;;;;;-2.90;100.00;99866.25;5073424;28;20024;-69
2021/11/23 04:38:52;;;;;;;18.65;8.90;;;;;;;-2.90;100.00;99884.81;5060729;28;20025;-69
2021/11/23 04:41:18;;;;;;;15.73;7.63;;;;;;;-2.82;100.00;99896.75;5070685;28;20035;-69
2021/11/23 04:43:43;;;;;;;17.85;7.95;;;;;;;-2.80;100.00;99889.53;5074117;28;20032;-69
2021/11/23 04:46:08;;;;;;;15.20;7.88;;;;;;;-2.99;100.00;99858.84;5071047;28;20170;-71
2021/11/23 04:48:34;;;;;;;13.05;7.15;;;;;;;-3.21;100.00;99842.56;5071149;28;20100;-72
2021/11/23 04:51:00;;;;;;;14.35;6.78;;;;;;;-3.20;100.00;99846.91;5074062;28;20499;-72
2021/11/23 04:53:25;;;;;;;11.95;6.32;;;;;;;-3.19;100.00;99861.84;5077576;28;20033;-71
2021/11/23 04:55:51;;;;;;;14.80;6.97;;;;;;;-2.95;100.00;99891.31;5069239;28;20101;-71
2021/11/23 04:58:16;;;;;;;12.82;6.72;;;;;;;-3.02;100.00;99892.63;5069889;28;20403;-71
2021/11/23 05:00:42;;;;;;;11.55;6.05;;;;;;;-3.09;100.00;99889.50;5068095;28;20028;-71
2021/11/23 05:03:07;;;;;;;13.30;6.35;;;;;;;-3.20;100.00;99887.44;5072837;28;20592;-71
2021/11/23 05:05:33;;;;;;;12.40;7.13;;;;;;;-3.10;100.00;99896.56;5070956;28;20029;-72
2021/11/23 05:07:58;;;;;;;13.20;7.40;;;;;;;-3.11;100.00;99880.78;5073055;28;20379;-74
2021/11/23 05:10:24;;;;;;;15.05;7.53;;;;;;;-2.99;100.00;99898.56;5071707;28;20043;-73
2021/11/23 05:12:49;;;;;;;13.85;6.40;;;;;;;-3.20;100.00;99860.97;5073634;28;20043;-74
2021/11/23 05:15:14;;;;;;;14.35;7.38;;;;;;;-3.36;100.00;99845.16;5073545;28;20059;-76
2021/11/23 05:17:40;;;;;;;14.63;6.97;;;;;;;-3.18;100.00;99882.91;5071376;28;20032;-73
2021/11/23 05:20:07;;;;;;;12.57;6.72;;;;;;;-3.14;100.00;99902.13;5071295;28;20032;-73
2021/11/23 05:22:33;;;;;;;13.32;6.95;;;;;;;-3.26;100.00;99897.56;5072337;28;20505;-70
2021/11/23 05:24:58;;;;;;;12.77;6.72;;;;;;;-3.17;100.00;99910.22;5065869;28;20020;-72
2021/11/23 05:27:24;;;;;;;13.68;7.63;;;;;;;-3.23;100.00;99900.00;5059378;28;20478;-76
2021/11/23 05:29:49;;;;;;;14.05;7.22;;;;;;;-3.30;100.00;99907.47;5059836;28;20028;-75
2021/11/23 05:32:14;;;;;;;13.52;7.32;;;;;;;-3.50;100.00;99876.00;5068488;28;20029;-73
2021/11/23 05:34:40;;;;;;;15.07;7.85;;;;;;;-3.41;100.00;99910.69;5069754;28;20154;-70
2021/11/23 05:37:05;;;;;;;18.08;7.55;;;;;;;-3.18;100.00;99912.03;5070062;28;20453;-72
2021/11/23 05:39:30;;;;;;;19.08;8.70;;;;;;;-3.31;100.00;99895.16;5070090;28;20547;-73
2021/11/23 05:41:56;;;;;;;15.50;8.52;;;;;;;-2.89;100.00;99920.91;5063259;28;20028;-73
2021/11/23 05:44:21;;;;;;;17.50;8.20;;;;;;;-2.84;100.00;99918.00;5064221;28;20060;-72
2021/11/23 05:46:47;;;;;;;18.05;9.25;;;;;;;-2.83;100.00;99908.25;5064653;28;20029;-72
2021/11/23 05:49:12;;;;;;;18.88;9.50;;;;;;;-2.85;100.00;99894.28;5068871;28;20486;-72
2021/11/23 05:51:40;;;;;;;20.90;8.88;;;;;;;-2.75;100.00;99921.88;5071827;28;20043;-74
2021/11/23 05:54:05;;;;;;;15.77;7.22;;;;;;;-2.97;100.00;99896.69;5070125;28;20040;-73
2021/11/23 05:56:31;;;;;;;14.75;6.75;;;;;;;-3.28;100.00;99847.34;5070072;28;20028;-72
2021/11/23 05:58:56;;;;;;;10.65;6.30;;;;;;;-3.27;100.00;99879.97;5072666;28;20485;-72
2021/11/23 06:01:21;;;;;;;12.65;6.63;;;;;;;-3.35;100.00;99888.38;5071420;28;20029;-72
2021/11/23 06:03:47;;;;;;;15.95;7.35;;;;;;;-3.44;100.00;99889.72;5063970;28;20067;-75
2021/11/23 06:06:13;;;;;;;13.52;7.70;;;;;;;-3.54;100.00;99907.94;5072821;28;20422;-74
2021/11/23 06:08:39;;;;;;;14.80;7.15;;;;;;;-3.46;100.00;99923.34;5073168;28;20020;-75
2021/11/23 06:11:04;;;;;;;15.27;7.72;;;;;;;-3.56;100.00;99901.03;5069998;28;20032;-76
2021/11/23 06:13:31;;;;;;;14.52;7.57;;;;;;;-3.63;100.00;99924.31;5072503;28;20029;-75
2021/11/23 06:15:56;;;;;;;14.65;7.15;;;;;;;-3.87;100.00;99889.50;5072542;28;20070;-75
2021/11/23 06:18:22;;;;;;;15.25;7.03;;;;;;;-3.63;100.00;99931.41;5072872;28;20075;-74
2021/11/23 06:20:50;;;;;;;14.23;7.65;;;;;;;-3.63;100.00;99936.69;5073079;28;20040;-73
2021/11/23 06:23:18;;;;;;;15.45;7.45;;;;;;;-3.64;100.00;99937.59;5072723;28;20029;-75
2021/11/23 06:25:49;;;;;;;17.10;7.60;;;;;;;-4.01;100.00;99862.97;5073118;28;20050;-72
2021/11/23 06:28:17;;;;;;;17.48;7.40;;;;;;;-3.61;100.00;99945.38;5073828;28;20028;-73
2021/11/23 06:30:43;;;;;;;15.10;7.65;;;;;;;-3.60;100.00;99937.34;5078707;28;20028;-74
2021/11/23 06:33:08;;;;;;;17.27;8.27;;;;;;;-3.72;100.00;99900.16;5072999;28;20504;-70
2021/11/23 06:35:34;;;;;;;16.20;7.90;;;;;;;-3.41;100.00;99917.78;5065959;28;20033;-75
2021/11/23 06:38:00;;;;;;;13.45;7.45;;;;;;;-3.35;100.00;99936.84;5073723;28;20047;-77
2021/11/23 06:40:25;;;;;;;17.98;8.15;;;;;;;-3.27;100.00;99943.50;5071456;28;20024;-74
2021/11/23 06:42:51;;;;;;;22.15;10.70;;;;;;;-3.47;100.00;99926.94;5073201;28;20590;-75
2021/11/23 06:45:16;;;;;;;19.08;9.68;;;;;;;-3.58;100.00;99902.91;5070830;28;20530;-78
2021/11/23 06:47:42;;;;;;;18.27;9.52;;;;;;;-3.22;100.00;99967.88;5084091;28;20500;-70
2021/11/23 06:50:08;;;;;;;20.52;9.95;;;;;;;-3.33;100.00;99976.41;5080385;28;20029;-69
2021/11/23 06:52:35;;;;;;;18.88;9.75;;;;;;;-3.36;100.00;99980.09;5075344;28;20021;-75
2021/11/23 06:55:00;;;;;;;20.75;8.40;;;;;;;-3.57;100.00;99957.50;5069173;28;20032;-72
2021/11/23 06:57:25;;;;;;;18.52;9.20;;;;;;;-3.38;100.00;99973.19;5071984;28;20028;-70
2021/11/23 06:59:51;;;;;;;18.60;9.30;;;;;;;-3.34;100.00;99994.09;5075438;28;20047;-70
2021/11/23 07:02:16;;;;;;;18.75;8.98;;;;;;;-3.50;100.00;99961.50;5075419;28;20070;-72
2021/11/23 07:04:42;;;;;;;16.00;8.02;;;;;;;-3.29;100.00;99971.81;5074985;28;20060;-74
2021/11/23 07:07:09;;;;;;;17.88;9.40;;;;;;;-3.11;100.00;99987.50;5077894;28;20028;-74
2021/11/23 07:09:35;;;;;;;15.07;8.32;;;;;;;-3.23;100.00;99963.53;5076000;28;20028;-74
2021/11/23 07:12:00;;;;;;;19.58;8.00;;;;;;;-3.41;100.00;99934.50;5089168;28;20016;-74
2021/11/23 07:14:25;;;;;;;15.27;7.75;;;;;;;-3.23;100.00;99966.19;5094041;28;20028;-73
2021/11/23 07:16:51;;;;;;;15.95;8.30;;;;;;;-3.31;100.00;99946.28;5094606;28;20051;-75
2021/11/23 07:19:17;;;;;;;13.27;7.80;;;;;;;-3.05;100.00;99949.25;5086514;28;20076;-70
2021/11/23 07:21:42;;;;;;;16.88;7.60;;;;;;;-2.03;100.00;99976.69;5095935;28;20040;-74
2021/11/23 07:24:08;;;;;;;14.40;7.65;;;;;;;-0.49;99.50;99980.91;5096488;28;20039;-74
2021/11/23 07:26:34;;;;;;;11.90;6.45;;;;;;;1.09;88.16;99974.16;5092123;28;20588;-74
2021/11/23 07:29:02;;;;;;;8.63;5.35;;;;;;;2.70;80.18;99969.66;5073976;28;20024;-71
2021/11/23 07:31:28;;;;;;;10.63;5.18;;;;;;;3.85;77.41;99980.59;5065219;28;20502;-69
2021/11/23 07:33:53;;;;;;;7.50;4.88;;;;;;;4.00;70.78;99992.66;5076029;28;20036;-76
2021/11/23 07:36:20;;;;;;;7.75;5.22;;;;;;;4.74;69.06;99956.72;5072795;28;20033;-75
2021/11/23 07:38:47;;;;;;;7.63;3.80;;;;;;;6.30;63.73;99971.78;5074445;28;20031;-75
2021/11/23 07:41:13;;;;;;;8.77;4.68;;;;;;;7.52;60.04;99993.00;5075013;28;20427;-72
2021/11/23 07:43:38;;;;;;;6.72;4.93;;;;;;;8.22;53.65;99973.31;5074593;28;20030;-70
2021/11/23 07:46:04;;;;;;;6.68;4.85;;;;;;;8.86;52.79;99971.13;5075459;28;20356;-67
2021/11/23 07:48:29;;;;;;;7.80;4.50;;;;;;;8.83;49.70;99990.31;5072356;28;20024;-70
2021/11/23 07:50:55;;;;;;;7.72;4.20;;;;;;;9.27;48.93;99982.00;5073500;28;20409;-70
2021/11/23 07:53:20;;;;;;;7.22;5.13;;;;;;;9.76;47.21;99966.69;5072613;28;20103;-70
2021/11/23 07:55:49;;;;;;;10.27;4.88;;;;;;;10.97;47.30;99987.38;5066016;28;20027;-69
2021/11/23 07:58:16;;;;;;;11.60;5.10;;;;;;;10.21;45.33;99996.88;5074013;28;20115;-69
2021/11/23 08:00:41;;;;;;;7.82;5.55;;;;;;;10.88;45.80;99994.69;5067875;28;20537;-69
2021/11/23 08:03:09;;;;;;;7.63;4.43;;;;;;;11.31;43.67;99973.44;5066186;28;20056;-69
2021/11/23 08:05:35;;;;;;;6.10;4.95;;;;;;;11.51;43.10;99951.31;5061127;28;20520;-70
2021/11/23 08:08:01;;;;;;;9.05;5.18;;;;;;;11.98;41.56;99986.34;5058983;28;20025;-69
2021/11/23 08:10:26;;;;;;;11.98;5.47;;;;;;;12.63;40.96;99971.25;5061106;28;20490;-70
2021/11/23 08:12:52;;;;;;;7.53;5.05;;;;;;;12.89;40.69;99978.91;5063800;28;20133;-73
2021/11/23 08:15:17;;;;;;;7.15;5.50;;;;;;;13.01;39.58;99951.25;5064935;28;20024;-75
2021/11/23 08:17:42;;;;;;;8.55;5.50;;;;;;;12.86;38.81;99987.44;5068737;28;20020;-71
2021/11/23 08:20:10;;;;;;;10.00;5.60;;;;;;;13.11;39.87;99968.94;5060817;28;20024;-72
2021/11/23 08:22:37;;;;;;;7.55;5.90;;;;;;;12.26;40.29;99981.19;5071804;28;20035;-73
2021/11/23 08:25:02;;;;;;;9.13;5.82;;;;;;;12.65;39.57;99998.22;5073763;28;20020;-73
2021/11/23 08:27:28;;;;;;;9.80;6.50;;;;;;;13.87;38.90;99967.66;5072291;28;20039;-78
2021/11/23 08:29:54;;;;;;;9.32;5.80;;;;;;;13.28;38.87;99988.63;5073238;28;20025;-72
2021/11/23 08:32:19;;;;;;;7.50;5.68;;;;;;;13.56;38.42;99979.69;5070328;28;20127;-69
2021/11/23 08:34:44;;;;;;;11.98;5.28;;;;;;;13.63;38.34;99966.19;5065945;28;20017;-69
2021/11/23 08:37:11;;;;;;;8.77;5.43;;;;;;;14.05;37.52;99975.34;5068895;28;20035;-72
2021/11/23 08:39:37;;;;;;;8.32;4.93;;;;;;;15.19;37.12;99980.41;5073297;28;20443;-74
2021/11/23 08:42:02;;;;;;;5.22;4.70;;;;;;;14.67;35.94;99985.41;5063148;28;20103;-73
2021/11/23 08:44:28;;;;;;;5.25;4.43;;;;;;;13.77;37.87;99981.56;5053693;28;20040;-71
2021/11/23 08:46:53;;;;;;;7.60;4.95;;;;;;;14.83;37.33;99982.38;5068830;28;20097;-73
2021/11/23 08:49:19;;;;;;;8.48;5.50;;;;;;;15.45;36.46;99968.72;5073213;28;20095;-71
2021/11/23 08:51:44;;;;;;;5.75;4.88;;;;;;;15.75;35.74;99969.22;5073176;28;20107;-74
2021/11/23 08:54:10;;;;;;;5.25;4.20;;;;;;;14.67;35.44;99956.28;5071536;28;20024;-69
2021/11/23 08:56:38;;;;;;;4.82;4.32;;;;;;;15.49;34.94;99965.38;5073322;28;20046;-75
2021/11/23 08:59:09;;;;;;;7.05;4.80;;;;;;;15.51;34.52;99971.47;5068574;28;20051;-70
2021/11/23 09:01:36;;;;;;;7.28;4.25;;;;;;;15.77;35.07;99978.91;5057387;28;20040;-73
2021/11/23 09:04:03;;;;;;;5.22;3.95;;;;;;;15.93;33.86;99968.63;5069743;28;20082;-70
2021/11/23 09:06:30;;;;;;;4.45;3.97;;;;;;;16.60;32.59;99969.38;5070701;28;20027;-71
2021/11/23 09:08:57;;;;;;;5.80;3.75;;;;;;;15.63;34.04;99968.13;5072437;28;20023;-67
2021/11/23 09:11:23;;;;;;;6.22;3.97;;;;;;;16.16;32.87;99954.53;5060984;28;20029;-66
2021/11/23 09:13:49;;;;;;;5.20;4.20;;;;;;;15.75;33.78;99963.78;5071527;28;20032;-75
2021/11/23 09:16:14;;;;;;;4.47;3.60;;;;;;;15.62;33.59;99952.81;5072160;28;20036;-72
2021/11/23 09:18:40;;;;;;;4.22;3.38;;;;;;;16.59;33.34;99975.91;5068527;28;20410;-71
2021/11/23 09:21:05;;;;;;;3.55;3.03;;;;;;;16.13;33.40;99954.94;5066140;28;20028;-69
2021/11/23 09:23:30;;;;;;;3.85;3.00;;;;;;;17.89;30.76;99976.56;5071793;28;20035;-70
2021/11/23 09:25:56;;;;;;;5.10;3.47;;;;;;;17.43;31.44;99954.97;5076266;28;20058;-69
2021/11/23 09:28:21;;;;;;;4.55;3.40;;;;;;;17.51;30.48;99957.44;5073882;28;20045;-71
2021/11/23 09:30:46;;;;;;;5.28;3.45;;;;;;;16.15;32.26;99923.66;5072082;28;20041;-71
2021/11/23 09:33:14;;;;;;;4.82;3.20;;;;;;;16.29;32.43;99965.41;5073790;28;20023;-75
2021/11/23 09:35:40;;;;;;;5.97;3.20;;;;;;;16.63;32.49;99966.19;5076337;28;20048;-72
2021/11/23 09:38:06;;;;;;;3.63;2.40;;;;;;;18.35;30.37;99969.00;5073956;28;20057;-68
2021/11/23 09:40:31;;;;;;;3.60;2.90;;;;;;;16.44;30.68;99924.22;5080803;28;20062;-69
2021/11/23 09:42:57;;;;;;;3.58;2.88;;;;;;;17.35;30.21;99974.38;5078788;28;20442;-71
2021/11/23 09:45:23;;;;;;;2.70;2.35;;;;;;;18.40;29.01;99945.34;5092031;28;20116;-73
2021/11/23 09:47:48;;;;;;;2.58;2.38;;;;;;;16.51;32.02;99968.75;5078075;28;20086;-71
2021/11/23 09:50:14;;;;;;;2.90;2.15;;;;;;;16.11;32.04;99973.41;5078523;28;20027;-74
2021/11/23 09:52:40;;;;;;;4.40;2.08;;;;;;;18.09;30.05;99959.94;5073186;28;20025;-73
2021/11/23 09:55:08;;;;;;;2.70;2.10;;;;;;;17.66;29.65;99966.16;5072495;28;20029;-73
2021/11/23 09:57:34;;;;;;;7.07;3.78;;;;;;;17.47;31.01;99947.97;5072774;28;20032;-74
2021/11/23 10:00:01;;;;;;;4.93;3.60;;;;;;;16.48;32.12;99971.06;5071527;28;20110;-73
2021/11/23 10:02:29;;;;;;;4.85;3.95;;;;;;;16.93;32.47;99958.38;5071817;28;20021;-72
2021/11/23 10:05:03;;;;;;;5.20;3.60;;;;;;;16.92;32.01;99953.09;5070484;28;20016;-75
2021/11/23 10:07:45;;;;;;;5.90;3.75;;;;;;;17.34;31.08;99939.84;5070403;28;20271;-76
2021/11/23 10:10:19;;;;;;;6.68;3.42;;;;;;;17.29;31.78;99935.03;5071689;28;20021;-72
2021/11/23 10:12:56;;;;;;;4.72;3.33;;;;;;;17.78;31.45;99949.84;5071561;28;20055;-71
2021/11/23 10:15:30;;;;;;;5.82;3.85;;;;;;;17.78;30.96;99949.03;5066272;28;20024;-71
2021/11/23 10:18:08;;;;;;;6.03;3.70;;;;;;;17.53;30.99;99933.44;5069614;28;20107;-71
2021/11/23 10:20:46;;;;;;;4.25;3.67;;;;;;;16.73;32.61;99939.25;5065865;28;20479;-69
2021/11/23 10:23:42;;;;;;;5.45;3.45;;;;;;;16.55;32.79;99923.56;5052261;28;20441;-70
2021/11/23 10:26:20;;;;;;;5.28;3.47;;;;;;;18.03;30.33;99929.91;5067070;28;20022;-70
2021/11/23 10:29:02;;;;;;;4.22;3.03;;;;;;;17.56;29.54;99930.25;5053562;28;20514;-70
2021/11/23 10:31:34;;;;;;;4.03;2.60;;;;;;;19.05;28.77;99928.38;5062722;28;20355;-69
2021/11/23 10:34:02;;;;;;;3.53;2.70;;;;;;;18.32;29.65;99931.09;5068412;28;20112;-70
2021/11/23 10:36:35;;;;;;;3.63;3.03;;;;;;;17.75;30.07;99923.75;5071521;28;20032;-73
2021/11/23 10:39:09;;;;;;;16.15;4.18;;;;;;;19.37;29.69;99933.63;5067378;28;20025;-71
2021/11/23 10:41:35;;;;;;;4.85;2.30;;;;;;;17.96;28.74;99925.31;5075585;28;20077;-69
2021/11/23 10:44:01;;;;;;;3.35;2.00;;;;;;;18.97;27.29;99928.69;5074863;28;20016;-73
2021/11/23 10:46:30;;;;;;;4.00;1.70;;;;;;;18.74;27.29;99917.56;5069869;28;20127;-71
2021/11/23 10:48:58;;;;;;;4.47;1.65;;;;;;;19.41;26.15;99931.25;5068381;28;20099;-74
2021/11/23 10:51:25;;;;;;;2.65;1.90;;;;;;;18.62;27.20;99921.03;5073450;28;20475;-71
2021/11/23 10:54:10;;;;;;;1.83;1.55;;;;;;;19.37;27.42;99911.66;5075249;28;20116;-69
2021/11/23 10:56:54;;;;;;;2.30;1.60;;;;;;;18.60;27.74;99922.34;5073337;28;20036;-70
2021/11/23 10:59:19;;;;;;;1.80;1.42;;;;;;;18.56;27.13;99923.88;5062868;28;20471;-68
2021/11/23 11:01:45;;;;;;;1.73;1.48;;;;;;;18.87;26.73;99898.22;5058960;28;20098;-69
2021/11/23 11:04:12;;;;;;;2.38;1.52;;;;;;;19.77;25.33;99915.72;5073048;28;20020;-70
2021/11/23 11:06:37;;;;;;;3.65;1.50;;;;;;;18.05;27.61;99887.53;5070182;28;20115;-69
2021/11/23 11:09:03;;;;;;;3.80;2.45;;;;;;;18.98;27.83;99918.56;5064174;28;20107;-69
2021/11/23 11:11:28;;;;;;;1.90;1.48;;;;;;;18.39;27.54;99916.28;5066588;28;20148;-69
2021/11/23 11:13:54;;;;;;;1.83;1.17;;;;;;;18.29;26.80;99915.13;5066113;28;20043;-69
2021/11/23 11:16:21;;;;;;;1.70;1.10;;;;;;;19.11;25.40;99890.09;5071636;28;20031;-69
2021/11/23 11:19:07;;;;;;;2.13;1.60;;;;;;;18.29;26.78;99915.94;5068578;28;20020;-70
2021/11/23 11:21:37;;;;;;;1.92;1.40;;;;;;;18.03;27.88;99911.56;5054023;28;20036;-70
2021/11/23 11:24:21;;;;;;;1.70;1.25;;;;;;;18.41;28.25;99905.06;5066042;28;20675;-68